Landers, California
Current Conditions -  °F | °C
As of 1:56 AM on Sunday 26 Oct 2014 (Local Time) from KNXP Reporting Station
Clear Clear  
Wind Chill: 18°   Ceiling: Unl
Heat Index: 18°   Visibility: 10mi
Dew Point:   Wind: 7mph
Humidity: 48%   Direction: 360°N
Pressure: 30.05"   Gusts: NA
Location:  34.27°N, 116.39°W
Report Text: KNXP 260856Z AUTO 36006KT 10SM CLR 18/07 A3005 RMK AO2 SLP143 T01780067 58003
Loading
Personal Weather Stations






























Interactive Weather Map
Tropical Storm Tracking
New forecast layout! Learn more

10-Day Weather Forecast

Advertisements
Track Severe Weather on mobile